»·PEaware :: UAL840 YSSY-KLAX

UAL840 :: YSSY-KLAX

FLIGHT INFORMATION

Flight Status: Arrived
Operator:
United Airlines
More flights by this operator :: More flights under this callsign
Pilot: Henderson P. (1210)
Aircraft: BOEING 777-200
(B772)
More flights by this aircraft type
Origin: YSSY Kingsford Smith Intl
Australia
Destination: KLAX Los Angeles Intl
United States
More flights between these airports :: More routes between these airports
Route: DCT SY B450 NOBAR B474 BEADS/N0489F350 B474 MEPAB R587 VLI DCT 16S170E 13S175E 10S179W/N0488F370 05S173W 02S170W 02N165W 05N162W 10N157W/N0479F390 15N152W 20N145W 23N140W 26N134W/N0480F410 27N131W 30N126W DCT FICKY LEENA4
File this flight plan on PilotEdge
Remarks: SEL / QRDL PBN / A1B1C1D1L1O1S1 NAV / RNVD1E2A1 DOF / 131009 REG / N212UA SEL / QRDL RVR / 75 OPR / UNITED AIRLINES ORGN / SAN FRANCISCO PER / D / V /
Altitude:
(Current/Filed)
33,000ft
Speed:
(Current/Filed)
494kts
Departed: 09-Oct-13 04:02 AM
Arrived: 09-Oct-13 05:24 PM
Distance/Time
Traveled:
6508nm/13:22
Distance/Time
To Go:
Arrived

Flight Plot

Page will automatically refresh every two minutes.


Map Options




Map Legend


Flown Route
Filed Route
Departure Airport
Arrival Airport
Navaid (VOR, NDB)
Fix

Horizontal Profiles

Position Reports

Time Latitude Longitude Heading Altitude Ground
Speed
09-Oct-13 03:02 -33.940235 151.164859 14 34ft 0kts
09-Oct-13 03:03 -33.940235 151.164859 14 34ft 0kts
09-Oct-13 03:04 -33.940235 151.164859 14 34ft 0kts
09-Oct-13 03:05 -33.940235 151.164859 14 34ft 0kts
09-Oct-13 03:06 -33.940235 151.164859 14 34ft 0kts
09-Oct-13 03:07 -33.940235 151.164859 14 34ft 0kts
09-Oct-13 03:08 -33.940235 151.164859 14 34ft 0kts
09-Oct-13 03:09 -33.940235 151.164859 14 34ft 0kts
09-Oct-13 03:10 -33.940235 151.164859 14 34ft 0kts
09-Oct-13 03:11 -33.940235 151.164859 14 34ft 0kts
09-Oct-13 03:12 -33.940235 151.164859 14 34ft 0kts
09-Oct-13 03:13 -33.940235 151.164859 14 34ft 0kts
09-Oct-13 03:14 -33.940235 151.164859 14 34ft 0kts
09-Oct-13 03:15 -33.940235 151.164859 14 34ft 0kts
09-Oct-13 03:16 -33.940235 151.164859 14 34ft 0kts
09-Oct-13 03:17 -33.940235 151.164859 14 34ft 0kts
09-Oct-13 03:18 -33.940235 151.164859 14 34ft 0kts
09-Oct-13 03:19 -33.940235 151.164859 14 34ft 0kts
09-Oct-13 03:20 -33.940235 151.164859 14 34ft 0kts
09-Oct-13 03:21 -33.940235 151.164859 14 34ft 0kts
09-Oct-13 03:22 -33.940235 151.164859 14 34ft 0kts
09-Oct-13 03:23 -33.940235 151.164859 14 34ft 0kts
09-Oct-13 03:24 -33.940235 151.164859 14 34ft 0kts
09-Oct-13 03:25 -33.940235 151.164859 14 34ft 0kts
09-Oct-13 03:26 -33.940235 151.164859 14 34ft 0kts
09-Oct-13 03:27 -33.940235 151.164859 14 34ft 0kts
09-Oct-13 03:28 -33.940235 151.164859 14 34ft 0kts
09-Oct-13 03:29 -33.940235 151.164859 14 34ft 0kts
09-Oct-13 03:30 -33.940235 151.164859 14 34ft 0kts
09-Oct-13 03:31 -33.940235 151.164859 14 34ft 0kts
09-Oct-13 03:32 -33.940235 151.164859 14 34ft 0kts
09-Oct-13 03:33 -33.940235 151.164859 14 34ft 0kts
09-Oct-13 03:34 -33.940235 151.164859 14 34ft 0kts
09-Oct-13 03:35 -33.940235 151.164859 14 34ft 0kts
09-Oct-13 03:36 -33.940235 151.164859 14 34ft 0kts
09-Oct-13 03:37 -33.940235 151.164859 14 34ft 0kts
09-Oct-13 03:38 -33.940235 151.164859 14 34ft 0kts
09-Oct-13 03:39 -33.940235 151.164859 14 34ft 0kts
09-Oct-13 03:40 -33.940235 151.164859 14 34ft 0kts
09-Oct-13 03:41 -33.940235 151.164859 14 34ft 0kts
09-Oct-13 03:42 -33.940235 151.164859 14 34ft 0kts
09-Oct-13 03:43 -33.940235 151.164859 14 34ft 0kts
09-Oct-13 03:44 -33.940235 151.164859 14 34ft 0kts
09-Oct-13 03:45 -33.940235 151.164859 14 34ft 0kts
09-Oct-13 03:46 -33.940235 151.164859 14 34ft 0kts
09-Oct-13 03:47 -33.940235 151.164859 14 34ft 0kts
09-Oct-13 03:48 -33.940235 151.164859 14 34ft 0kts
09-Oct-13 03:49 -33.940235 151.164859 14 34ft 0kts
09-Oct-13 03:50 -33.940621 151.164742 14 34ft 1kts
09-Oct-13 03:51 -33.941095 151.164599 13 34ft 1kts
09-Oct-13 03:52 -33.941505 151.164445 49 34ft 1kts
09-Oct-13 03:53 -33.941624 151.164052 74 34ft 0kts
09-Oct-13 03:54 -33.941623 151.164056 74 34ft 0kts
09-Oct-13 03:55 -33.941621 151.164064 74 34ft 0kts
09-Oct-13 03:56 -33.942335 151.164696 209 34ft 2kts
09-Oct-13 03:57 -33.943441 151.163702 165 34ft 7kts
09-Oct-13 03:58 -33.943296 151.165563 74 34ft 39kts
09-Oct-13 03:59 -33.931415 151.216819 73 2275ft 193kts
09-Oct-13 04:00 -33.915950 151.285489 73 3951ft 255kts
09-Oct-13 04:01 -33.895056 151.373612 63 6503ft 282kts
09-Oct-13 04:02 -33.863048 151.464141 69 9095ft 305kts
09-Oct-13 04:03 -33.835008 151.565266 71 11089ft 345kts
09-Oct-13 04:04 -33.801523 151.683856 69 12733ft 398kts
09-Oct-13 04:05 -33.732632 151.793035 44 15104ft 421kts
09-Oct-13 04:06 -33.643000 151.892562 41 17267ft 444kts
09-Oct-13 04:07 -33.549033 151.991468 41 19483ft 459kts
09-Oct-13 04:08 -33.452370 152.094187 41 21410ft 477kts
09-Oct-13 04:09 -33.349305 152.203100 41 23001ft 499kts
09-Oct-13 04:10 -33.244029 152.313835 41 24799ft 513kts
09-Oct-13 04:11 -33.134766 152.428360 40 26345ft 532kts
09-Oct-13 04:12 -33.018813 152.549455 40 27063ft 568kts
09-Oct-13 04:13 -32.899234 152.673882 40 28840ft 577kts
09-Oct-13 04:14 -32.776983 152.800611 40 30687ft 582kts
09-Oct-13 04:15 -32.655152 152.926412 41 32469ft 586kts
09-Oct-13 04:16 -32.529446 153.055759 42 33181ft 599kts
09-Oct-13 04:17 -32.403088 153.185261 42 34672ft 600kts
09-Oct-13 04:18 -32.277205 153.313776 42 35052ft 598kts
09-Oct-13 04:19 -32.129603 153.463845 42 35052ft 600kts
09-Oct-13 04:20 -32.023536 153.571287 42 35025ft 604kts
09-Oct-13 04:21 -31.896860 153.699154 43 35023ft 596kts
09-Oct-13 04:22 -31.771285 153.825736 43 35053ft 589kts
09-Oct-13 04:23 -31.646314 153.950723 43 35053ft 589kts
09-Oct-13 04:24 -31.521938 154.074613 43 35053ft 586kts
09-Oct-13 04:25 -31.397386 154.198038 43 35052ft 582kts
09-Oct-13 04:26 -31.273767 154.320759 43 35053ft 582kts
09-Oct-13 04:27 -31.150074 154.443100 43 35053ft 582kts
09-Oct-13 04:28 -31.027166 154.564034 44 35053ft 577kts
09-Oct-13 04:29 -30.904036 154.684743 43 35053ft 577kts
09-Oct-13 04:30 -30.781186 154.804758 43 35053ft 577kts
09-Oct-13 04:31 -30.657438 154.925232 43 35052ft 577kts
09-Oct-13 04:32 -30.534314 155.044687 43 35052ft 577kts
09-Oct-13 04:33 -30.431279 155.144338 43 35052ft 577kts
09-Oct-13 04:34 -30.287377 155.283041 43 35141ft 578kts
09-Oct-13 04:35 -30.163581 155.401927 43 35141ft 577kts
09-Oct-13 04:36 -30.040028 155.520180 43 35141ft 577kts
09-Oct-13 04:37 -29.936523 155.618940 43 35141ft 577kts
09-Oct-13 04:38 -29.812364 155.737046 43 35141ft 578kts
09-Oct-13 04:39 -29.688505 155.854475 43 35141ft 578kts
09-Oct-13 04:40 -29.564091 155.972041 43 35141ft 578kts
09-Oct-13 04:41 -29.439552 156.089339 43 35141ft 578kts
09-Oct-13 04:42 -29.315336 156.205949 43 35141ft 578kts
09-Oct-13 04:43 -29.190631 156.322639 43 35141ft 578kts
09-Oct-13 04:44 -29.065769 156.439097 42 35141ft 578kts
09-Oct-13 04:45 -28.940842 156.555241 42 35170ft 578kts
09-Oct-13 04:46 -28.816203 156.670747 42 35171ft 578kts
09-Oct-13 04:47 -28.691404 156.786033 42 35171ft 578kts
09-Oct-13 04:48 -28.566128 156.901394 42 35171ft 578kts
09-Oct-13 04:49 -28.441224 157.016051 42 35171ft 578kts
09-Oct-13 04:50 -28.315704 157.130913 42 35171ft 578kts
09-Oct-13 04:51 -28.190148 157.245448 42 35170ft 578kts
09-Oct-13 04:52 -28.065485 157.358820 43 35170ft 571kts
09-Oct-13 04:53 -27.940755 157.471904 43 35170ft 572kts
09-Oct-13 04:54 -27.816634 157.584094 43 35170ft 572kts
09-Oct-13 04:55 -27.692108 157.696313 43 35170ft 572kts
09-Oct-13 04:56 -27.567767 157.808030 42 35170ft 572kts
09-Oct-13 04:57 -27.443008 157.919789 42 35171ft 572kts
09-Oct-13 04:58 -27.318192 158.031270 43 35171ft 569kts
09-Oct-13 04:59 -27.194402 158.141511 43 35171ft 569kts
09-Oct-13 05:00 -27.071977 158.250456 43 35171ft 567kts
09-Oct-13 05:01 -26.946373 158.361538 42 35172ft 566kts
09-Oct-13 05:02 -26.822735 158.470517 41 35169ft 562kts
09-Oct-13 05:03 -26.699429 158.578707 41 35170ft 562kts
09-Oct-13 05:04 -26.576275 158.686690 41 35171ft 562kts
09-Oct-13 05:05 -26.453898 158.794068 41 35169ft 562kts
09-Oct-13 05:06 -26.330131 158.902056 41 35170ft 562kts
09-Oct-13 05:07 -26.206769 159.009403 41 35168ft 564kts
09-Oct-13 05:08 -26.083217 159.116584 41 35170ft 564kts
09-Oct-13 05:09 -25.959266 159.223845 41 35168ft 561kts
09-Oct-13 05:10 -25.836977 159.329371 40 35170ft 554kts
09-Oct-13 05:11 -25.714840 159.434473 39 35171ft 554kts
09-Oct-13 05:12 -25.593002 159.539045 39 35171ft 554kts
09-Oct-13 05:13 -25.470691 159.643746 39 35171ft 554kts
09-Oct-13 05:14 -25.348303 159.748237 39 35170ft 554kts
09-Oct-13 05:15 -25.225847 159.852517 39 35170ft 554kts
09-Oct-13 05:16 -25.103994 159.956008 39 35170ft 553kts
09-Oct-13 05:17 -24.981964 160.059388 37 35112ft 549kts
09-Oct-13 05:18 -24.860868 160.161720 37 35112ft 548kts
09-Oct-13 05:19 -24.739929 160.263810 36 35112ft 545kts
09-Oct-13 05:20 -24.619884 160.364613 35 35112ft 541kts
09-Oct-13 05:21 -24.500416 160.464620 34 35111ft 534kts
09-Oct-13 05:22 -24.382222 160.563228 34 35111ft 535kts
09-Oct-13 05:23 -24.263642 160.662298 34 35111ft 535kts
09-Oct-13 05:24 -24.145382 160.760880 34 35111ft 535kts
09-Oct-13 05:25 -24.026703 160.859442 34 35112ft 535kts
09-Oct-13 05:26 -23.907865 160.957887 34 35112ft 534kts
09-Oct-13 05:27 -23.788990 161.056128 34 35112ft 534kts
09-Oct-13 05:28 -23.670477 161.153840 34 35111ft 534kts
09-Oct-13 05:29 -23.551100 161.252036 34 35111ft 534kts
09-Oct-13 05:30 -23.432466 161.349393 33 35112ft 534kts
09-Oct-13 05:31 -23.313420 161.446863 33 35085ft 534kts
09-Oct-13 05:32 -23.195070 161.543542 33 35082ft 534kts
09-Oct-13 05:33 -23.075446 161.641039 33 35082ft 534kts
09-Oct-13 05:34 -22.956232 161.737982 33 35082ft 534kts
09-Oct-13 05:35 -22.836924 161.834783 33 35082ft 534kts
09-Oct-13 05:36 -22.718794 161.930414 33 35082ft 534kts
09-Oct-13 05:37 -22.598574 162.027521 33 35082ft 534kts
09-Oct-13 05:38 -22.479488 162.123502 30 35082ft 530kts
09-Oct-13 05:39 -22.361374 162.218486 30 35082ft 528kts
09-Oct-13 05:40 -22.243506 162.313068 30 35082ft 528kts
09-Oct-13 05:41 -22.125273 162.407745 30 35082ft 528kts
09-Oct-13 05:42 -22.006998 162.502252 30 35082ft 528kts
09-Oct-13 05:43 -21.908459 162.580836 30 35082ft 527kts
09-Oct-13 05:44 -21.770932 162.690284 30 35082ft 527kts
09-Oct-13 05:45 -21.672236 162.768667 30 35082ft 527kts
09-Oct-13 05:46 -21.534690 162.877809 30 35082ft 527kts
09-Oct-13 05:47 -21.435911 162.955849 30 35082ft 527kts
09-Oct-13 05:48 -21.328995 163.065689 49 35081ft 543kts
09-Oct-13 05:49 -21.243694 163.199289 48 35082ft 542kts
09-Oct-13 05:50 -21.154695 163.330758 47 35081ft 542kts
09-Oct-13 05:51 -21.066194 163.460844 46 35082ft 541kts
09-Oct-13 05:52 -20.977136 163.591059 45 35082ft 540kts
09-Oct-13 05:53 -20.888048 163.720975 45 35082ft 540kts
09-Oct-13 05:54 -20.784406 163.871732 44 35082ft 540kts
09-Oct-13 05:55 -20.710065 163.979622 44 35082ft 539kts
09-Oct-13 05:56 -20.621089 164.108488 44 35082ft 540kts
09-Oct-13 05:57 -20.531671 164.237698 44 35082ft 539kts
09-Oct-13 05:58 -20.442655 164.366053 43 35082ft 535kts
09-Oct-13 05:59 -20.353813 164.493862 42 35082ft 535kts
09-Oct-13 06:00 -20.265144 164.621146 42 35082ft 535kts
09-Oct-13 06:01 -20.176494 164.748126 43 35082ft 535kts
09-Oct-13 06:02 -20.087197 164.875758 43 35082ft 534kts
09-Oct-13 06:03 -19.998431 165.002355 42 35082ft 534kts
09-Oct-13 06:04 -19.909570 165.128818 42 35082ft 532kts
09-Oct-13 06:05 -19.821149 165.254387 42 35082ft 530kts
09-Oct-13 06:06 -19.732736 165.379681 43 35082ft 528kts
09-Oct-13 06:07 -19.644591 165.504336 43 35082ft 529kts
09-Oct-13 06:08 -19.555767 165.629689 43 35082ft 527kts
09-Oct-13 06:09 -19.468104 165.753151 43 35082ft 526kts
09-Oct-13 06:10 -19.379460 165.877739 43 35082ft 529kts
09-Oct-13 06:11 -19.290694 166.002243 44 35082ft 525kts
09-Oct-13 06:12 -19.202788 166.125292 44 34994ft 525kts
09-Oct-13 06:13 -19.114757 166.248269 44 34977ft 525kts
09-Oct-13 06:14 -19.026395 166.371463 43 34964ft 525kts
09-Oct-13 06:15 -18.937905 166.494591 43 34964ft 525kts
09-Oct-13 06:16 -18.849383 166.617520 43 34964ft 525kts
09-Oct-13 06:17 -18.760725 166.740396 43 34966ft 524kts
09-Oct-13 06:18 -18.673688 166.860792 44 34964ft 512kts
09-Oct-13 06:19 -18.586978 166.980510 44 34964ft 512kts
09-Oct-13 06:20 -18.500219 167.100069 44 34964ft 512kts
09-Oct-13 06:21 -18.413660 167.219128 44 34964ft 512kts
09-Oct-13 06:22 -18.326739 167.338464 44 34964ft 512kts
09-Oct-13 06:23 -18.239769 167.457646 44 34964ft 512kts
09-Oct-13 06:24 -18.152750 167.576676 44 34964ft 512kts
09-Oct-13 06:25 -18.066220 167.694822 44 34964ft 512kts
09-Oct-13 06:26 -17.979030 167.813654 44 34964ft 512kts
09-Oct-13 06:27 -17.891508 167.932726 44 34964ft 512kts
09-Oct-13 06:28 -17.804330 168.051332 44 34964ft 512kts
09-Oct-13 06:29 -17.717207 168.169300 43 34964ft 512kts
09-Oct-13 06:30 -17.627276 168.284613 37 34967ft 504kts
09-Oct-13 06:31 -17.527828 168.388013 36 34964ft 503kts
09-Oct-13 06:32 -17.429506 168.492119 36 34964ft 503kts
09-Oct-13 06:33 -17.330698 168.597657 37 34964ft 506kts
09-Oct-13 06:34 -17.232458 168.702238 37 34962ft 506kts
09-Oct-13 06:35 -17.133531 168.807334 37 34961ft 506kts
09-Oct-13 06:36 -17.034257 168.912625 37 34968ft 504kts
09-Oct-13 06:37 -16.901797 169.052842 37 34960ft 505kts
09-Oct-13 06:38 -16.835692 169.122779 37 34966ft 506kts
09-Oct-13 06:39 -16.736609 169.227360 38 34961ft 506kts
09-Oct-13 06:40 -16.637142 169.332212 39 34963ft 508kts
09-Oct-13 06:41 -16.537623 169.436953 39 34964ft 508kts
09-Oct-13 06:42 -16.437780 169.541844 39 34993ft 508kts
09-Oct-13 06:43 -16.337868 169.646666 40 34993ft 511kts
09-Oct-13 06:44 -16.237956 169.751331 40 34997ft 509kts
09-Oct-13 06:45 -16.137781 169.856246 40 34996ft 509kts
09-Oct-13 06:46 -16.037899 169.960470 40 34990ft 509kts
09-Oct-13 06:47 -15.950080 170.078433 55 35666ft 519kts
09-Oct-13 06:48 -15.877837 170.208669 55 36920ft 523kts
09-Oct-13 06:49 -15.802723 170.338196 54 36991ft 519kts
09-Oct-13 06:50 -15.740335 170.445435 54 36992ft 520kts
09-Oct-13 06:51 -15.663619 170.576649 54 36993ft 521kts
09-Oct-13 06:52 -15.588317 170.705200 54 36991ft 518kts
09-Oct-13 06:53 -15.513027 170.833484 54 36996ft 520kts
09-Oct-13 06:54 -15.437639 170.961691 54 36964ft 517kts
09-Oct-13 06:55 -15.362353 171.089526 54 36964ft 517kts
09-Oct-13 06:56 -15.287372 171.216652 54 36966ft 518kts
09-Oct-13 06:57 -15.199779 171.364839 54 36965ft 517kts
09-Oct-13 06:58 -15.136658 171.471497 54 36967ft 518kts
09-Oct-13 06:59 -15.061442 171.598320 54 36963ft 517kts
09-Oct-13 07:00 -14.985924 171.725511 54 36962ft 518kts
09-Oct-13 07:01 -14.910303 171.852628 54 36967ft 516kts
09-Oct-13 07:02 -14.834621 171.979639 54 36967ft 518kts
09-Oct-13 07:03 -14.759477 172.105556 54 36963ft 517kts
09-Oct-13 07:04 -14.682727 172.233965 55 36964ft 528kts
09-Oct-13 07:05 -14.605289 172.363308 55 36964ft 526kts
09-Oct-13 07:06 -14.528306 172.491681 55 36964ft 526kts
09-Oct-13 07:07 -14.451290 172.619912 55 36951ft 527kts
09-Oct-13 07:08 -14.373565 172.749100 54 36934ft 529kts
09-Oct-13 07:09 -14.295792 172.878170 54 36934ft 529kts
09-Oct-13 07:10 -14.218691 173.005923 53 36934ft 517kts
09-Oct-13 07:11 -14.142568 173.131861 53 36934ft 518kts
09-Oct-13 07:12 -14.066132 173.258124 53 36935ft 518kts
09-Oct-13 07:13 -13.989863 173.383918 53 36934ft 518kts
09-Oct-13 07:14 -13.913041 173.510434 53 36934ft 518kts
09-Oct-13 07:15 -13.836647 173.636053 53 36934ft 518kts
09-Oct-13 07:16 -13.760428 173.761199 54 36934ft 512kts
09-Oct-13 07:17 -13.684498 173.885688 54 36934ft 513kts
09-Oct-13 07:18 -13.608702 174.009778 53 36934ft 514kts
09-Oct-13 07:19 -13.532106 174.134991 53 36934ft 517kts
09-Oct-13 07:20 -13.455484 174.260067 53 36935ft 516kts
09-Oct-13 07:21 -13.379058 174.384645 53 36934ft 516kts
09-Oct-13 07:22 -13.302040 174.510008 53 36905ft 516kts
09-Oct-13 07:23 -13.225222 174.634872 53 36905ft 516kts
09-Oct-13 07:24 -13.148649 174.759329 53 36905ft 516kts
09-Oct-13 07:25 -13.071964 174.883569 53 36905ft 516kts
09-Oct-13 07:26 -12.994922 175.008765 55 36903ft 517kts
09-Oct-13 07:27 -12.930345 175.141084 60 36905ft 520kts
09-Oct-13 07:28 -12.866529 175.274504 59 36905ft 520kts
09-Oct-13 07:29 -12.802389 175.407053 60 36905ft 513kts
09-Oct-13 07:30 -12.738661 175.538190 60 36905ft 513kts
09-Oct-13 07:31 -12.675007 175.668834 60 36904ft 512kts
09-Oct-13 07:32 -12.611487 175.798990 60 36877ft 511kts
09-Oct-13 07:33 -12.547569 175.929764 60 36876ft 511kts
09-Oct-13 07:34 -12.484095 176.059434 60 36876ft 509kts
09-Oct-13 07:35 -12.420676 176.188809 61 36875ft 506kts
09-Oct-13 07:36 -12.357357 176.317789 61 36875ft 506kts
09-Oct-13 07:37 -12.293980 176.446699 61 36876ft 506kts
09-Oct-13 07:38 -12.230804 176.575019 61 36875ft 506kts
09-Oct-13 07:39 -12.167365 176.703689 61 36875ft 506kts
09-Oct-13 07:40 -12.103852 176.832328 61 36876ft 506kts
09-Oct-13 07:41 -12.040307 176.960851 61 36875ft 506kts
09-Oct-13 07:42 -11.976920 177.088876 60 36875ft 505kts
09-Oct-13 07:43 -11.924053 177.195514 60 36876ft 504kts
09-Oct-13 07:44 -11.860848 177.322851 60 36875ft 503kts
09-Oct-13 07:45 -11.797189 177.450920 61 36875ft 503kts
09-Oct-13 07:46 -11.733836 177.578208 61 36875ft 504kts
09-Oct-13 07:47 -11.659669 177.727002 61 36876ft 503kts
09-Oct-13 07:48 -11.606627 177.833271 61 36875ft 503kts
09-Oct-13 07:49 -11.543217 177.960160 61 36875ft 502kts
09-Oct-13 07:50 -11.479411 178.087671 61 36875ft 502kts
09-Oct-13 07:51 -11.416084 178.214059 61 36875ft 501kts
09-Oct-13 07:52 -11.352472 178.340849 61 36876ft 501kts
09-Oct-13 07:53 -11.288608 178.467977 61 36875ft 501kts
09-Oct-13 07:54 -11.225117 178.594201 61 36875ft 501kts
09-Oct-13 07:55 -11.161570 178.720375 61 36876ft 501kts
09-Oct-13 07:56 -11.097564 178.847300 61 36875ft 501kts
09-Oct-13 07:57 -11.033903 178.973379 61 36875ft 501kts
09-Oct-13 07:58 -10.970228 179.099327 61 36876ft 500kts
09-Oct-13 07:59 -10.909143 179.220010 61 36875ft 492kts
09-Oct-13 08:00 -10.846354 179.343909 61 36876ft 493kts
09-Oct-13 08:01 -10.783537 179.467714 61 36875ft 493kts
09-Oct-13 08:02 -10.720505 179.591792 61 36875ft 493kts
09-Oct-13 08:03 -10.657610 179.715454 61 36876ft 493kts
09-Oct-13 08:04 -10.594476 179.839440 61 36875ft 493kts
09-Oct-13 08:05 -10.531035 179.963880 61 36875ft 493kts
09-Oct-13 08:06 -10.468007 -179.912631 61 36876ft 493kts
09-Oct-13 08:07 -10.404700 -179.788741 61 36875ft 493kts
09-Oct-13 08:08 -10.341347 -179.664905 61 36875ft 493kts
09-Oct-13 08:09 -10.278149 -179.541509 61 36875ft 493kts
09-Oct-13 08:10 -10.214498 -179.417369 61 36875ft 493kts
09-Oct-13 08:11 -10.151197 -179.294046 61 36875ft 493kts
09-Oct-13 08:12 -10.087515 -179.169981 61 36875ft 493kts
09-Oct-13 08:13 -10.024097 -179.046810 61 36875ft 493kts
09-Oct-13 08:14 -9.947766 -178.931647 48 36876ft 492kts
09-Oct-13 08:16 -9.785260 -178.737145 49 36875ft 492kts
09-Oct-13 08:17 -9.683551 -178.612655 49 36875ft 492kts
09-Oct-13 08:18 -9.595996 -178.505652 49 36875ft 492kts
09-Oct-13 08:19 -9.508465 -178.398788 49 36875ft 492kts
09-Oct-13 08:20 -9.421126 -178.292253 49 36875ft 492kts
09-Oct-13 08:21 -9.333502 -178.185466 49 36875ft 492kts
09-Oct-13 08:22 -9.246092 -178.079030 49 36875ft 492kts
09-Oct-13 08:23 -9.158114 -177.971995 49 36876ft 492kts
09-Oct-13 08:24 -9.070349 -177.865311 49 36875ft 492kts
09-Oct-13 08:25 -8.982892 -177.759090 49 36875ft 492kts
09-Oct-13 08:26 -8.895065 -177.652508 49 36876ft 492kts
09-Oct-13 08:27 -8.807257 -177.546037 49 36875ft 492kts
09-Oct-13 08:28 -8.719708 -177.439967 49 36875ft 492kts
09-Oct-13 08:29 -8.631491 -177.333173 49 36875ft 492kts
09-Oct-13 08:30 -8.543873 -177.227189 49 36875ft 492kts
09-Oct-13 08:31 -8.455923 -177.120888 49 36875ft 492kts
09-Oct-13 08:32 -8.367600 -177.014220 49 36876ft 497kts
09-Oct-13 08:33 -8.278704 -176.906942 49 36875ft 498kts
09-Oct-13 08:34 -8.189582 -176.799476 49 36876ft 498kts
09-Oct-13 08:35 -8.100386 -176.692003 49 36875ft 498kts
09-Oct-13 08:36 -8.011500 -176.584984 49 36875ft 498kts
09-Oct-13 08:37 -7.922271 -176.477633 49 36875ft 498kts
09-Oct-13 08:38 -7.832986 -176.370293 49 36875ft 498kts
09-Oct-13 08:39 -7.743692 -176.263022 49 36875ft 498kts
09-Oct-13 08:40 -7.654379 -176.155805 49 36875ft 498kts
09-Oct-13 08:41 -7.565783 -176.049526 49 36875ft 495kts
09-Oct-13 08:42 -7.476851 -175.942917 49 36875ft 490kts
09-Oct-13 08:43 -7.389257 -175.837985 49 36875ft 490kts
09-Oct-13 08:44 -7.301332 -175.732727 49 36875ft 490kts
09-Oct-13 08:45 -7.213360 -175.627485 49 36875ft 490kts
09-Oct-13 08:46 -7.125364 -175.522283 49 36875ft 490kts
09-Oct-13 08:47 -7.037610 -175.417439 49 36875ft 490kts
09-Oct-13 08:48 -6.963902 -175.329428 49 36875ft 490kts
09-Oct-13 08:49 -6.876158 -175.224719 49 36875ft 490kts
09-Oct-13 08:50 -6.788048 -175.119641 49 36875ft 490kts
09-Oct-13 08:51 -6.700258 -175.015007 49 36875ft 490kts
09-Oct-13 08:52 -6.611835 -174.909685 49 36875ft 490kts
09-Oct-13 08:53 -6.524000 -174.805126 49 36875ft 490kts
09-Oct-13 08:54 -6.436143 -174.700602 49 36875ft 490kts
09-Oct-13 08:55 -6.347628 -174.595359 49 36875ft 490kts
09-Oct-13 08:56 -6.259390 -174.490506 49 36875ft 490kts
09-Oct-13 08:57 -6.171742 -174.386413 49 36875ft 490kts
09-Oct-13 08:58 -6.083216 -174.281336 49 36875ft 490kts
09-Oct-13 08:59 -5.995256 -174.176990 49 36876ft 490kts
09-Oct-13 09:00 -5.906959 -174.072301 49 36875ft 490kts
09-Oct-13 09:01 -5.818643 -173.967645 49 36875ft 490kts
09-Oct-13 09:02 -5.730281 -173.862990 49 36875ft 490kts
09-Oct-13 09:03 -5.642243 -173.758774 49 36875ft 490kts
09-Oct-13 09:04 -5.553859 -173.654201 49 36875ft 490kts
09-Oct-13 09:05 -5.465482 -173.549688 49 36875ft 490kts
09-Oct-13 09:06 -5.377075 -173.445191 49 36876ft 490kts
09-Oct-13 09:07 -5.288944 -173.341069 49 36875ft 490kts
09-Oct-13 09:08 -5.200247 -173.236307 49 36876ft 490kts
09-Oct-13 09:09 -5.111809 -173.131897 49 36875ft 490kts
09-Oct-13 09:10 -5.023606 -173.027862 49 36875ft 490kts
09-Oct-13 09:11 -4.930627 -172.928014 43 36875ft 492kts
09-Oct-13 09:12 -4.832314 -172.831302 44 36875ft 492kts
09-Oct-13 09:13 -4.735539 -172.734367 45 36875ft 492kts
09-Oct-13 09:14 -4.638920 -172.637332 45 36875ft 492kts
09-Oct-13 09:15 -4.541625 -172.539674 45 36875ft 492kts
09-Oct-13 09:16 -4.444607 -172.442336 45 36875ft 492kts
09-Oct-13 09:17 -4.347608 -172.345056 45 36876ft 492kts
09-Oct-13 09:18 -4.250943 -172.248149 45 36875ft 492kts
09-Oct-13 09:19 -4.153583 -172.150581 45 36876ft 492kts
09-Oct-13 09:20 -4.056906 -172.053734 45 36875ft 492kts
09-Oct-13 09:21 -3.960158 -171.956850 45 36875ft 492kts
09-Oct-13 09:22 -3.862796 -171.859385 45 36934ft 492kts
09-Oct-13 09:23 -3.766017 -171.762538 45 36935ft 492kts
09-Oct-13 09:24 -3.668927 -171.665411 45 36934ft 492kts
09-Oct-13 09:25 -3.571843 -171.568322 45 36935ft 492kts
09-Oct-13 09:26 -3.475090 -171.471594 45 36934ft 492kts
09-Oct-13 09:27 -3.377995 -171.374555 45 36935ft 492kts
09-Oct-13 09:28 -3.280855 -171.277499 44 36934ft 492kts
09-Oct-13 09:29 -3.184072 -171.180829 44 36934ft 492kts
09-Oct-13 09:30 -3.086581 -171.083477 44 36934ft 492kts
09-Oct-13 09:31 -2.989455 -170.986517 44 36934ft 492kts
09-Oct-13 09:32 -2.892598 -170.889852 44 36934ft 492kts
09-Oct-13 09:33 -2.795783 -170.793251 44 36934ft 492kts
09-Oct-13 09:34 -2.698581 -170.696289 44 36934ft 492kts
09-Oct-13 09:35 -2.601427 -170.599398 44 36934ft 492kts
09-Oct-13 09:36 -2.504546 -170.502799 44 36934ft 492kts
09-Oct-13 09:37 -2.407395 -170.405953 44 36934ft 492kts
09-Oct-13 09:38 -2.310167 -170.309048 44 36934ft 492kts
09-Oct-13 09:39 -2.213286 -170.212495 44 36934ft 492kts
09-Oct-13 09:40 -2.148080 -170.147519 44 36934ft 492kts
09-Oct-13 09:40 -2.083485 -170.083172 44 36935ft 492kts
09-Oct-13 09:41 -2.018910 -170.018860 44 36934ft 492kts
09-Oct-13 09:42 -1.930208 -169.914651 52 36934ft 491kts
09-Oct-13 09:43 -1.845654 -169.807223 51 36934ft 490kts
09-Oct-13 09:44 -1.760697 -169.700693 51 36934ft 488kts
09-Oct-13 09:45 -1.675900 -169.594546 51 36934ft 487kts
09-Oct-13 09:46 -1.591583 -169.489063 51 36934ft 486kts
09-Oct-13 09:47 -1.492932 -169.365673 51 36935ft 486kts
09-Oct-13 09:48 -1.422646 -169.277774 51 36930ft 486kts
09-Oct-13 09:49 -1.338131 -169.172100 51 36932ft 485kts
09-Oct-13 09:50 -1.267568 -169.083903 51 36934ft 487kts
09-Oct-13 09:51 -1.169395 -168.961165 51 36933ft 486kts
09-Oct-13 09:52 -1.084742 -168.855354 51 36935ft 486kts
09-Oct-13 09:53 -1.014209 -168.767202 51 36934ft 484kts
09-Oct-13 09:54 -0.936850 -168.670498 51 36933ft 487kts
09-Oct-13 09:55 -0.845297 -168.556096 51 36935ft 486kts
09-Oct-13 09:56 -0.760626 -168.450296 51 36933ft 485kts
09-Oct-13 09:57 -0.676316 -168.344974 51 36935ft 487kts
09-Oct-13 09:58 -0.591650 -168.239181 51 36932ft 484kts
09-Oct-13 09:59 -0.507276 -168.133755 51 36936ft 486kts
09-Oct-13 10:00 -0.408530 -168.010404 51 36933ft 485kts
09-Oct-13 10:01 -0.338297 -167.922686 51 36938ft 486kts
09-Oct-13 10:02 -0.253675 -167.816991 51 36935ft 485kts
09-Oct-13 10:03 -0.168998 -167.711205 51 36934ft 487kts
09-Oct-13 10:04 -0.084272 -167.605374 51 36937ft 486kts
09-Oct-13 10:05 -0.000251 -167.500401 51 36934ft 486kts
09-Oct-13 10:06 0.084433 -167.394640 51 36933ft 486kts
09-Oct-13 10:07 0.169101 -167.288883 51 36932ft 487kts
09-Oct-13 10:08 0.253605 -167.183316 51 36934ft 486kts
09-Oct-13 10:09 0.338229 -167.077612 51 38496ft 481kts
09-Oct-13 10:10 0.421857 -166.973143 51 38963ft 481kts
09-Oct-13 10:11 0.505569 -166.868567 51 38964ft 481kts
09-Oct-13 10:12 0.589255 -166.764017 51 38964ft 481kts
09-Oct-13 10:13 0.672692 -166.659773 51 38964ft 481kts
09-Oct-13 10:14 0.756430 -166.555147 51 38964ft 481kts
09-Oct-13 10:15 0.839843 -166.450919 51 38964ft 481kts
09-Oct-13 10:16 0.923580 -166.346278 51 38964ft 481kts
09-Oct-13 10:17 1.007283 -166.241670 51 38964ft 481kts
09-Oct-13 10:18 1.090707 -166.137402 51 38964ft 481kts
09-Oct-13 10:19 1.174690 -166.032425 51 38964ft 481kts
09-Oct-13 10:20 1.258120 -165.928127 51 38964ft 481kts
09-Oct-13 10:21 1.341539 -165.823830 51 38964ft 481kts
09-Oct-13 10:22 1.425517 -165.718822 51 38964ft 481kts
09-Oct-13 10:23 1.508647 -165.614860 51 38964ft 481kts
09-Oct-13 10:24 1.592370 -165.510141 51 38964ft 481kts
09-Oct-13 10:25 1.675781 -165.405796 51 38964ft 481kts
09-Oct-13 10:26 1.759746 -165.300739 51 38964ft 481kts
09-Oct-13 10:27 1.843115 -165.196429 51 38964ft 481kts
09-Oct-13 10:28 1.926785 -165.091684 51 38964ft 481kts
09-Oct-13 10:29 2.010999 -164.987387 48 38963ft 481kts
09-Oct-13 10:30 2.106158 -164.892916 43 38964ft 481kts
09-Oct-13 10:31 2.201741 -164.798918 44 38964ft 481kts
09-Oct-13 10:32 2.296511 -164.704673 44 38964ft 481kts
09-Oct-13 10:33 2.391817 -164.609729 44 38964ft 481kts
09-Oct-13 10:34 2.486491 -164.515366 44 38964ft 481kts
09-Oct-13 10:35 2.581497 -164.420646 44 38964ft 481kts
09-Oct-13 10:36 2.676493 -164.325914 44 38964ft 481kts
09-Oct-13 10:37 2.771428 -164.231220 44 38964ft 481kts
09-Oct-13 10:38 2.866105 -164.136761 44 38964ft 481kts
09-Oct-13 10:39 2.961033 -164.042029 44 38964ft 481kts
09-Oct-13 10:40 3.056029 -163.947204 44 38964ft 481kts
09-Oct-13 10:41 3.150951 -163.852428 44 38964ft 481kts
09-Oct-13 10:42 3.245921 -163.757578 44 38964ft 481kts
09-Oct-13 10:43 3.340519 -163.663073 44 38964ft 481kts
09-Oct-13 10:44 3.435451 -163.568207 44 38964ft 481kts
09-Oct-13 10:45 3.530062 -163.473633 44 38964ft 481kts
09-Oct-13 10:46 3.625292 -163.378412 44 38964ft 481kts
09-Oct-13 10:47 3.719886 -163.283796 44 38964ft 481kts
09-Oct-13 10:48 3.814448 -163.189182 45 38964ft 481kts
09-Oct-13 10:49 3.909093 -163.094454 44 38964ft 476kts
09-Oct-13 10:50 4.002744 -163.000688 44 38964ft 475kts
09-Oct-13 10:51 4.096222 -162.907064 44 38964ft 473kts
09-Oct-13 10:52 4.189592 -162.813515 44 38964ft 474kts
09-Oct-13 10:53 4.282958 -162.719936 44 38964ft 474kts
09-Oct-13 10:54 4.375979 -162.626668 44 38964ft 474kts
09-Oct-13 10:55 4.469343 -162.533020 44 38964ft 474kts
09-Oct-13 10:56 4.562280 -162.439765 44 38964ft 472kts
09-Oct-13 10:57 4.655672 -162.346016 44 38964ft 472kts
09-Oct-13 10:58 4.748621 -162.252671 44 38964ft 471kts
09-Oct-13 11:08 5.679274 -161.330015 44 38993ft 470kts
09-Oct-13 11:09 5.757150 -161.253048 44 38993ft 470kts
09-Oct-13 11:10 5.850644 -161.160605 44 38994ft 470kts
09-Oct-13 11:11 5.944044 -161.068208 44 38994ft 474kts
09-Oct-13 11:12 6.038501 -160.974719 44 38993ft 473kts
09-Oct-13 11:13 6.132377 -160.881757 44 38993ft 475kts
09-Oct-13 11:14 6.226332 -160.788667 44 38994ft 476kts
09-Oct-13 11:15 6.321300 -160.694524 44 38993ft 476kts
09-Oct-13 11:16 6.415838 -160.600756 44 38993ft 479kts
09-Oct-13 11:17 6.510517 -160.506797 44 38993ft 479kts
09-Oct-13 11:18 6.605797 -160.412187 44 38993ft 479kts
09-Oct-13 11:19 6.700432 -160.318165 44 38993ft 479kts
09-Oct-13 11:20 6.795368 -160.223789 44 38993ft 479kts
09-Oct-13 11:21 6.889946 -160.129714 44 38993ft 479kts
09-Oct-13 11:22 6.984890 -160.035218 44 38993ft 479kts
09-Oct-13 11:23 7.079452 -159.941046 44 38993ft 479kts
09-Oct-13 11:24 7.174321 -159.846511 44 38993ft 479kts
09-Oct-13 11:25 7.268833 -159.752272 44 38993ft 479kts
09-Oct-13 11:26 7.363971 -159.657350 44 38993ft 479kts
09-Oct-13 11:27 7.458489 -159.562987 44 38993ft 479kts
09-Oct-13 11:28 7.553301 -159.468268 44 38993ft 479kts
09-Oct-13 11:29 7.647728 -159.373873 44 38994ft 479kts
09-Oct-13 11:30 7.742976 -159.278593 44 38993ft 480kts
09-Oct-13 11:31 7.837792 -159.183683 44 38994ft 481kts
09-Oct-13 11:32 7.933029 -159.088286 44 38993ft 482kts
09-Oct-13 11:33 8.028129 -158.992960 44 38994ft 482kts
09-Oct-13 11:34 8.123847 -158.896947 44 38993ft 482kts
09-Oct-13 11:35 8.219228 -158.801204 44 38993ft 482kts
09-Oct-13 11:36 8.314243 -158.705760 44 38993ft 482kts
09-Oct-13 11:37 8.409290 -158.610215 44 38994ft 482kts
09-Oct-13 11:38 8.504579 -158.514356 44 38993ft 482kts
09-Oct-13 11:39 8.599887 -158.418406 44 38993ft 482kts
09-Oct-13 11:40 8.695461 -158.322116 44 38993ft 482kts
09-Oct-13 11:41 8.790391 -158.226402 44 38993ft 482kts
09-Oct-13 11:42 8.885615 -158.130318 44 38993ft 482kts
09-Oct-13 11:43 8.980808 -158.034191 44 38993ft 482kts
09-Oct-13 11:44 9.075653 -157.938339 44 38993ft 482kts
09-Oct-13 11:45 9.170805 -157.842100 44 38993ft 482kts
09-Oct-13 11:46 9.265942 -157.745799 44 38993ft 482kts
09-Oct-13 11:47 9.361039 -157.649459 44 38993ft 482kts
09-Oct-13 11:48 9.455802 -157.553379 44 38993ft 482kts
09-Oct-13 11:49 9.551170 -157.456604 44 38994ft 482kts
09-Oct-13 11:50 9.645557 -157.360743 44 38993ft 480kts
09-Oct-13 11:51 9.739794 -157.264953 45 38994ft 480kts
09-Oct-13 11:52 9.834284 -157.168906 45 38993ft 480kts
09-Oct-13 11:53 9.931172 -157.070182 45 38993ft 480kts
09-Oct-13 11:54 10.025471 -156.974672 43 38994ft 479kts
09-Oct-13 11:55 10.120786 -156.882215 45 38993ft 471kts
09-Oct-13 11:56 10.216719 -156.788675 45 38993ft 482kts
09-Oct-13 11:57 10.314326 -156.693528 45 38994ft 488kts
09-Oct-13 11:58 10.396072 -156.613723 44 38994ft 492kts
09-Oct-13 11:59 10.495029 -156.516985 43 38993ft 493kts
09-Oct-13 12:00 10.593845 -156.420284 43 38993ft 491kts
09-Oct-13 12:01 10.692445 -156.323703 43 38993ft 491kts
09-Oct-13 12:02 10.791113 -156.226963 43 38994ft 491kts
09-Oct-13 12:03 10.890287 -156.129632 43 39080ft 492kts
09-Oct-13 12:04 10.988346 -156.033302 43 39082ft 490kts
09-Oct-13 12:05 11.086215 -155.937065 43 39082ft 490kts
09-Oct-13 12:06 11.184925 -155.839906 43 39082ft 492kts
09-Oct-13 12:07 11.283096 -155.743181 43 39082ft 491kts
09-Oct-13 12:08 11.381873 -155.645761 43 39112ft 491kts
09-Oct-13 12:09 11.479962 -155.548921 43 39111ft 491kts
09-Oct-13 12:10 11.577986 -155.452046 43 39112ft 491kts
09-Oct-13 12:11 11.676641 -155.354447 43 39111ft 491kts
09-Oct-13 12:12 11.774644 -155.257392 43 39122ft 491kts
09-Oct-13 12:13 11.872926 -155.159958 43 39128ft 491kts
09-Oct-13 12:14 11.971171 -155.062457 43 39141ft 491kts
09-Oct-13 12:15 12.069078 -154.965190 43 39082ft 491kts
09-Oct-13 12:16 12.167353 -154.867450 43 39082ft 492kts
09-Oct-13 12:17 12.265287 -154.769942 43 39082ft 492kts
09-Oct-13 12:18 12.363873 -154.671679 43 39082ft 492kts
09-Oct-13 12:19 12.461723 -154.574040 43 39082ft 492kts
09-Oct-13 12:20 12.559855 -154.476012 43 39081ft 492kts
09-Oct-13 12:21 12.659942 -154.375915 44 39082ft 508kts
09-Oct-13 12:22 12.760658 -154.275074 44 39082ft 505kts
09-Oct-13 12:23 12.861455 -154.174031 44 39082ft 506kts
09-Oct-13 12:24 12.962199 -154.072923 44 39082ft 506kts
09-Oct-13 12:25 13.062912 -153.971724 44 39082ft 506kts
09-Oct-13 12:26 13.163644 -153.870384 44 39082ft 506kts
09-Oct-13 12:27 13.264257 -153.769040 44 39082ft 506kts
09-Oct-13 12:28 13.364873 -153.667569 44 39082ft 506kts
09-Oct-13 12:29 13.465138 -153.566327 44 39082ft 506kts
09-Oct-13 12:30 13.565644 -153.464715 44 39082ft 506kts
09-Oct-13 12:31 13.666177 -153.362948 44 39082ft 506kts
09-Oct-13 12:32 13.766631 -153.261132 44 39082ft 506kts
09-Oct-13 12:33 13.866685 -153.159592 44 39082ft 506kts
09-Oct-13 12:34 13.967059 -153.057597 44 39082ft 506kts
09-Oct-13 12:35 14.067396 -152.955507 44 39099ft 506kts
09-Oct-13 12:36 14.167324 -152.853699 44 39099ft 506kts
09-Oct-13 12:37 14.267940 -152.751056 44 39099ft 506kts
09-Oct-13 12:38 14.367781 -152.649068 44 39099ft 506kts
09-Oct-13 12:39 14.467588 -152.546978 44 39099ft 506kts
09-Oct-13 12:40 14.568071 -152.444058 44 39099ft 506kts
09-Oct-13 12:41 14.667805 -152.341765 44 39100ft 506kts
09-Oct-13 12:42 14.767507 -152.239364 44 39099ft 506kts
09-Oct-13 12:43 14.867508 -152.136616 44 39100ft 506kts
09-Oct-13 12:44 14.967438 -152.033597 44 39099ft 506kts
09-Oct-13 12:45 15.060150 -151.923961 53 39099ft 506kts
09-Oct-13 12:46 15.144748 -151.807323 52 39099ft 506kts
09-Oct-13 12:47 15.230495 -151.692108 52 39099ft 506kts
09-Oct-13 12:48 15.316837 -151.576687 52 39099ft 506kts
09-Oct-13 12:49 15.403307 -151.460762 52 39099ft 506kts
09-Oct-13 12:50 15.489184 -151.345433 52 39100ft 506kts
09-Oct-13 12:51 15.575262 -151.229655 52 39099ft 506kts
09-Oct-13 12:52 15.632424 -151.152670 52 39099ft 506kts
09-Oct-13 12:52 15.689824 -151.075285 52 39100ft 506kts
09-Oct-13 12:53 15.747222 -150.997822 52 39099ft 506kts
09-Oct-13 12:53 15.747222 -150.997822 52 39099ft 506kts
09-Oct-13 12:54 15.832834 -150.882133 52 39099ft 506kts
09-Oct-13 12:55 15.918386 -150.766344 52 39099ft 506kts
09-Oct-13 12:56 16.004133 -150.650109 52 39099ft 506kts
09-Oct-13 12:57 16.091294 -150.531766 52 39100ft 523kts
09-Oct-13 12:58 16.179636 -150.411623 52 39099ft 519kts
09-Oct-13 12:59 16.267283 -150.292229 53 39099ft 520kts
09-Oct-13 13:00 16.355362 -150.172046 53 39099ft 518kts
09-Oct-13 13:01 16.443027 -150.052229 53 39099ft 519kts
09-Oct-13 13:02 16.515784 -149.952633 53 39099ft 519kts
09-Oct-13 13:03 16.603274 -149.832686 53 39099ft 519kts
09-Oct-13 13:04 16.690722 -149.712592 53 39100ft 519kts
09-Oct-13 13:05 16.777828 -149.592764 53 39094ft 519kts
09-Oct-13 13:06 16.864829 -149.472876 53 39089ft 519kts
09-Oct-13 13:07 16.952073 -149.352444 53 39089ft 519kts
09-Oct-13 13:08 17.039538 -149.231497 53 39089ft 519kts
09-Oct-13 13:09 17.126620 -149.110869 53 39089ft 519kts
09-Oct-13 13:10 17.213394 -148.990456 53 39080ft 519kts
09-Oct-13 13:11 17.299947 -148.870139 53 39080ft 516kts
09-Oct-13 13:12 17.386055 -148.750227 53 39079ft 516kts
09-Oct-13 13:13 17.472404 -148.629767 53 39079ft 516kts
09-Oct-13 13:14 17.558658 -148.509224 53 39079ft 516kts
09-Oct-13 13:15 17.644880 -148.388509 53 39079ft 516kts
09-Oct-13 13:16 17.730690 -148.268152 53 39079ft 516kts
09-Oct-13 13:17 17.817027 -148.146837 53 39079ft 516kts
09-Oct-13 13:18 17.902717 -148.026209 53 39080ft 516kts
09-Oct-13 13:19 17.988348 -147.905443 53 39079ft 516kts
09-Oct-13 13:20 18.074434 -147.783811 53 39071ft 516kts
09-Oct-13 13:21 18.160170 -147.662448 53 39070ft 516kts
09-Oct-13 13:22 18.245522 -147.541402 53 39069ft 516kts
09-Oct-13 13:23 18.330822 -147.420203 53 39069ft 516kts
09-Oct-13 13:24 18.388216 -147.338526 53 39069ft 516kts
09-Oct-13 13:24 18.445001 -147.257612 53 39069ft 516kts
09-Oct-13 13:25 18.502053 -147.176216 53 39069ft 516kts
09-Oct-13 13:26 18.558758 -147.095212 53 39070ft 516kts
09-Oct-13 13:27 18.672367 -146.932606 53 39069ft 516kts
09-Oct-13 13:28 18.757889 -146.809924 53 39383ft 518kts
09-Oct-13 13:29 18.841763 -146.689374 53 41049ft 507kts
09-Oct-13 13:30 18.924608 -146.570075 53 41069ft 501kts
09-Oct-13 13:31 19.007209 -146.450899 53 41069ft 502kts
09-Oct-13 13:32 19.090618 -146.330326 52 41069ft 511kts
09-Oct-13 13:33 19.174138 -146.209355 52 41069ft 509kts
09-Oct-13 13:34 19.258061 -146.087561 52 41069ft 509kts
09-Oct-13 13:35 19.341313 -145.966501 52 41069ft 509kts
09-Oct-13 13:36 19.424763 -145.844913 52 41069ft 509kts
09-Oct-13 13:37 19.508189 -145.723115 52 41069ft 509kts
09-Oct-13 13:38 19.591194 -145.601689 52 41069ft 509kts
09-Oct-13 13:39 19.674704 -145.479275 52 41069ft 509kts
09-Oct-13 13:40 19.757844 -145.357153 53 41105ft 509kts
09-Oct-13 13:41 19.840791 -145.235300 53 41079ft 509kts
09-Oct-13 13:42 19.923427 -145.113307 53 41079ft 509kts
09-Oct-13 13:43 20.006233 -144.990664 53 41080ft 509kts
09-Oct-13 13:44 20.085088 -144.864449 55 41079ft 510kts
09-Oct-13 13:45 20.163478 -144.738309 55 41079ft 510kts
09-Oct-13 13:46 20.241901 -144.612826 55 41079ft 510kts
09-Oct-13 13:47 20.320205 -144.487163 55 41079ft 510kts
09-Oct-13 13:48 20.398620 -144.360895 55 41079ft 510kts
09-Oct-13 13:49 20.476914 -144.234525 55 41079ft 510kts
09-Oct-13 13:50 20.555163 -144.107950 55 41079ft 510kts
09-Oct-13 13:51 20.633277 -143.981313 55 41079ft 510kts
09-Oct-13 13:52 20.711078 -143.854906 55 41080ft 510kts
09-Oct-13 13:53 20.789020 -143.727988 55 41079ft 510kts
09-Oct-13 13:54 20.866905 -143.600882 55 41079ft 510kts
09-Oct-13 13:55 20.944676 -143.473673 55 41079ft 510kts
09-Oct-13 13:56 21.022074 -143.346793 55 41079ft 510kts
09-Oct-13 13:57 21.099649 -143.219332 55 41079ft 510kts
09-Oct-13 13:58 21.177125 -143.091747 55 41079ft 510kts
09-Oct-13 13:59 21.241414 -142.985653 55 41078ft 510kts
09-Oct-13 14:00 21.331897 -142.835992 55 41079ft 512kts
09-Oct-13 14:01 21.396791 -142.728406 55 41079ft 512kts
09-Oct-13 14:02 21.473698 -142.600633 55 41079ft 512kts
09-Oct-13 14:03 21.551001 -142.471910 56 41068ft 512kts
09-Oct-13 14:04 21.628419 -142.342689 56 41070ft 512kts
09-Oct-13 14:05 21.705326 -142.213988 56 41073ft 512kts
09-Oct-13 14:06 21.782403 -142.084744 56 41066ft 511kts
09-Oct-13 14:07 21.859300 -141.955474 56 41067ft 513kts
09-Oct-13 14:08 21.936359 -141.825611 56 41071ft 513kts
09-Oct-13 14:09 22.012850 -141.696410 56 41067ft 512kts
09-Oct-13 14:10 22.088783 -141.567812 55 41068ft 504kts
09-Oct-13 14:11 22.164318 -141.439619 55 41069ft 506kts
09-Oct-13 14:12 22.239758 -141.311280 56 41069ft 505kts
09-Oct-13 14:13 22.315094 -141.182795 56 41071ft 506kts
09-Oct-13 14:14 22.390400 -141.054048 56 41059ft 505kts
09-Oct-13 14:15 22.465332 -140.925630 56 41059ft 506kts
09-Oct-13 14:16 22.540186 -140.797031 56 41059ft 506kts
09-Oct-13 14:17 22.615424 -140.667454 56 41059ft 506kts
09-Oct-13 14:18 22.690262 -140.538247 56 41059ft 506kts
09-Oct-13 14:19 22.765057 -140.408790 56 41059ft 506kts
09-Oct-13 14:20 22.839549 -140.279684 56 41059ft 506kts
09-Oct-13 14:21 22.914156 -140.149990 56 41059ft 506kts
09-Oct-13 14:22 22.988519 -140.020105 56 41059ft 506kts
09-Oct-13 14:23 23.059218 -139.889031 58 41059ft 500kts
09-Oct-13 14:24 23.129165 -139.756003 58 41060ft 513kts
09-Oct-13 14:25 23.200347 -139.621337 57 41059ft 511kts
09-Oct-13 14:26 23.271128 -139.487429 58 41059ft 511kts
09-Oct-13 14:27 23.341872 -139.352877 58 41059ft 511kts
09-Oct-13 14:28 23.412514 -139.218106 58 41059ft 511kts
09-Oct-13 14:29 23.482829 -139.083590 58 41059ft 511kts
09-Oct-13 14:30 23.553227 -138.948548 58 41059ft 511kts
09-Oct-13 14:31 23.623550 -138.813282 58 41059ft 511kts
09-Oct-13 14:32 23.693490 -138.678383 58 41059ft 511kts
09-Oct-13 14:33 23.763584 -138.542814 58 41059ft 511kts
09-Oct-13 14:34 23.833523 -138.407171 58 41059ft 512kts
09-Oct-13 14:35 23.903372 -138.271326 58 41059ft 512kts
09-Oct-13 14:36 23.972845 -138.135836 58 41059ft 512kts
09-Oct-13 14:37 24.042455 -137.999696 58 41039ft 512kts
09-Oct-13 14:38 24.111961 -137.863378 58 41039ft 512kts
09-Oct-13 14:39 24.181097 -137.727400 58 41039ft 512kts
09-Oct-13 14:40 24.250355 -137.590799 58 41039ft 512kts
09-Oct-13 14:41 24.319494 -137.454039 58 41039ft 512kts
09-Oct-13 14:42 24.388513 -137.317129 58 41039ft 512kts
09-Oct-13 14:43 24.457415 -137.180054 59 41039ft 512kts
09-Oct-13 14:44 24.525944 -137.043328 59 41039ft 512kts
09-Oct-13 14:45 24.594382 -136.906388 59 40991ft 512kts
09-Oct-13 14:46 24.662928 -136.768833 59 40843ft 511kts
09-Oct-13 14:47 24.731080 -136.631667 59 40839ft 512kts
09-Oct-13 14:48 24.799597 -136.493359 59 40839ft 512kts
09-Oct-13 14:49 24.867558 -136.355770 59 40839ft 512kts
09-Oct-13 14:50 24.935566 -136.217677 59 40839ft 512kts
09-Oct-13 14:51 25.003279 -136.079773 59 40839ft 512kts
09-Oct-13 14:52 25.070617 -135.942224 58 40839ft 501kts
09-Oct-13 14:53 25.136580 -135.807086 58 40839ft 501kts
09-Oct-13 14:54 25.202440 -135.671759 58 40814ft 501kts
09-Oct-13 14:55 25.268643 -135.535326 58 40809ft 501kts
09-Oct-13 14:56 25.334280 -135.399663 58 40810ft 501kts
09-Oct-13 14:57 25.400192 -135.263001 58 40819ft 502kts
09-Oct-13 14:58 25.465860 -135.126439 58 40819ft 501kts
09-Oct-13 14:59 25.531063 -134.990454 58 40820ft 501kts
09-Oct-13 15:00 25.596393 -134.853796 58 40818ft 501kts
09-Oct-13 15:01 25.661781 -134.716556 58 40820ft 502kts
09-Oct-13 15:02 25.726612 -134.580105 58 40820ft 501kts
09-Oct-13 15:03 25.791527 -134.443046 59 40818ft 500kts
09-Oct-13 15:04 25.845584 -134.328594 59 40821ft 502kts
09-Oct-13 15:05 25.921310 -134.168121 59 40820ft 502kts
09-Oct-13 15:06 25.974918 -134.053608 59 40821ft 501kts
09-Oct-13 15:07 26.032776 -133.912535 66 40820ft 504kts
09-Oct-13 15:08 26.081073 -133.765685 66 40821ft 504kts
09-Oct-13 15:09 26.130971 -133.619239 65 40820ft 505kts
09-Oct-13 15:10 26.181170 -133.473815 66 40819ft 505kts
09-Oct-13 15:11 26.231173 -133.327453 66 40821ft 503kts
09-Oct-13 15:12 26.280771 -133.181619 66 40818ft 505kts
09-Oct-13 15:13 26.330457 -133.034913 66 40816ft 504kts
09-Oct-13 15:14 26.379977 -132.888153 66 40818ft 505kts
09-Oct-13 15:15 26.429416 -132.741061 66 40828ft 505kts
09-Oct-13 15:16 26.478630 -132.594072 66 40829ft 505kts
09-Oct-13 15:17 26.527583 -132.447307 66 40828ft 504kts
09-Oct-13 15:18 26.576468 -132.300173 66 40829ft 504kts
09-Oct-13 15:19 26.625277 -132.152646 66 40827ft 506kts
09-Oct-13 15:20 26.673787 -132.005461 66 40829ft 505kts
09-Oct-13 15:21 26.720851 -131.862073 66 40830ft 506kts
09-Oct-13 15:22 26.769115 -131.714523 67 40838ft 504kts
09-Oct-13 15:23 26.817256 -131.566652 67 40837ft 505kts
09-Oct-13 15:24 26.865464 -131.418016 67 40840ft 505kts
09-Oct-13 15:25 26.913309 -131.270709 67 40842ft 504kts
09-Oct-13 15:26 26.961009 -131.121926 67 40836ft 505kts
09-Oct-13 15:27 27.012073 -130.975720 58 40843ft 501kts
09-Oct-13 15:28 27.093784 -130.849011 49 40845ft 500kts
09-Oct-13 15:29 27.174867 -130.723008 51 40859ft 500kts
09-Oct-13 15:30 27.255786 -130.595398 50 40857ft 500kts
09-Oct-13 15:31 27.336338 -130.467590 51 40854ft 501kts
09-Oct-13 15:32 27.416655 -130.339495 51 40860ft 498kts
09-Oct-13 15:33 27.496817 -130.211299 51 40859ft 500kts
09-Oct-13 15:34 27.576688 -130.083149 51 40859ft 501kts
09-Oct-13 15:35 27.656702 -129.954422 51 40859ft 500kts
09-Oct-13 15:36 27.736803 -129.825144 51 40860ft 502kts
09-Oct-13 15:37 27.816355 -129.696370 51 40859ft 501kts
09-Oct-13 15:38 27.896090 -129.566937 51 40857ft 499kts
09-Oct-13 15:39 27.975678 -129.437355 51 40859ft 502kts
09-Oct-13 15:40 28.054924 -129.307939 52 40859ft 500kts
09-Oct-13 15:41 28.134269 -129.177966 52 40859ft 500kts
09-Oct-13 15:42 28.213498 -129.047791 52 40859ft 500kts
09-Oct-13 15:43 28.292323 -128.917885 52 40859ft 500kts
09-Oct-13 15:44 28.371574 -128.786877 52 40859ft 501kts
09-Oct-13 15:45 28.449955 -128.656911 52 40859ft 501kts
09-Oct-13 15:46 28.528677 -128.525978 52 40859ft 501kts
09-Oct-13 15:47 28.607575 -128.394345 52 40859ft 501kts
09-Oct-13 15:48 28.685587 -128.263784 52 40859ft 501kts
09-Oct-13 15:49 28.763956 -128.132220 52 40859ft 501kts
09-Oct-13 15:50 28.842224 -128.000413 52 40859ft 501kts
09-Oct-13 15:51 28.921224 -127.866950 51 40860ft 510kts
09-Oct-13 15:52 29.000693 -127.732265 51 40859ft 509kts
09-Oct-13 15:53 29.079858 -127.597662 52 40861ft 509kts
09-Oct-13 15:54 29.158528 -127.463468 52 40869ft 508kts
09-Oct-13 15:55 29.237016 -127.329149 52 40869ft 508kts
09-Oct-13 15:56 29.315920 -127.193679 52 40869ft 508kts
09-Oct-13 15:57 29.394395 -127.058503 52 40869ft 508kts
09-Oct-13 15:58 29.472215 -126.924016 52 40869ft 508kts
09-Oct-13 15:59 29.550471 -126.788329 52 40869ft 508kts
09-Oct-13 16:00 29.628584 -126.652440 52 40869ft 508kts
09-Oct-13 16:01 29.706545 -126.516363 52 40869ft 508kts
09-Oct-13 16:02 29.784106 -126.380531 52 40869ft 508kts
09-Oct-13 16:03 29.862254 -126.243697 52 40869ft 508kts
09-Oct-13 16:04 29.939456 -126.107270 52 40869ft 509kts
09-Oct-13 16:05 30.014698 -125.966748 61 40869ft 520kts
09-Oct-13 16:06 30.068588 -125.811329 65 40869ft 521kts
09-Oct-13 16:07 30.123243 -125.655954 64 40869ft 521kts
09-Oct-13 16:08 30.178950 -125.500996 64 40869ft 521kts
09-Oct-13 16:09 30.234054 -125.346303 64 40869ft 521kts
09-Oct-13 16:10 30.288930 -125.191298 64 40869ft 521kts
09-Oct-13 16:11 30.343955 -125.035144 64 40869ft 521kts
09-Oct-13 16:12 30.398430 -124.879849 64 40869ft 521kts
09-Oct-13 16:13 30.452922 -124.723807 64 40869ft 521kts
09-Oct-13 16:14 30.507054 -124.568088 65 40869ft 521kts
09-Oct-13 16:15 30.561341 -124.411214 65 40869ft 521kts
09-Oct-13 16:16 30.614951 -124.255586 65 40869ft 521kts
09-Oct-13 16:17 30.659811 -124.124808 65 40859ft 521kts
09-Oct-13 16:18 30.713408 -123.967900 65 40859ft 521kts
09-Oct-13 16:19 30.766825 -123.810788 65 40859ft 521kts
09-Oct-13 16:20 30.820076 -123.653435 65 40859ft 521kts
09-Oct-13 16:21 30.873131 -123.495922 65 40860ft 522kts
09-Oct-13 16:22 30.925611 -123.339386 65 40859ft 520kts
09-Oct-13 16:23 30.978293 -123.181510 65 40860ft 520kts
09-Oct-13 16:24 31.029997 -123.025811 65 40840ft 512kts
09-Oct-13 16:25 31.080496 -122.873057 64 40839ft 498kts
09-Oct-13 16:26 31.130376 -122.721463 64 40839ft 500kts
09-Oct-13 16:27 31.180100 -122.569642 64 40839ft 500kts
09-Oct-13 16:28 31.229469 -122.418208 64 40849ft 498kts
09-Oct-13 16:29 31.278730 -122.266401 64 40849ft 498kts
09-Oct-13 16:30 31.327799 -122.114475 65 40845ft 498kts
09-Oct-13 16:31 31.376659 -121.962485 65 40839ft 500kts
09-Oct-13 16:32 31.425492 -121.809859 65 40847ft 500kts
09-Oct-13 16:33 31.474430 -121.657114 65 40849ft 500kts
09-Oct-13 16:34 31.522753 -121.504001 65 40849ft 500kts
09-Oct-13 16:35 31.571389 -121.351628 63 40849ft 499kts
09-Oct-13 16:36 31.624101 -121.200480 63 40849ft 505kts
09-Oct-13 16:37 31.677478 -121.045137 64 40849ft 514kts
09-Oct-13 16:38 31.731181 -120.889956 64 40850ft 512kts
09-Oct-13 16:39 31.784209 -120.734921 64 40849ft 512kts
09-Oct-13 16:40 31.837512 -120.578837 63 40850ft 510kts
09-Oct-13 16:41 31.889309 -120.425617 63 40849ft 505kts
09-Oct-13 16:42 31.942888 -120.272664 56 40848ft 501kts
09-Oct-13 16:43 32.032758 -120.151812 39 40850ft 489kts
09-Oct-13 16:44 32.126819 -120.034908 41 40768ft 493kts
09-Oct-13 16:45 32.220766 -119.916087 39 38409ft 491kts
09-Oct-13 16:46 32.313070 -119.799260 37 35471ft 487kts
09-Oct-13 16:47 32.405499 -119.681029 37 32644ft 485kts
09-Oct-13 16:48 32.495784 -119.565328 37 30518ft 469kts
09-Oct-13 16:49 32.583146 -119.452901 35 28401ft 452kts
09-Oct-13 16:50 32.667008 -119.344567 35 26168ft 440kts
09-Oct-13 16:51 32.748833 -119.239152 35 24004ft 427kts
09-Oct-13 16:52 32.828237 -119.136533 34 21883ft 415kts
09-Oct-13 16:53 32.905643 -119.036014 36 19561ft 412kts
09-Oct-13 16:54 32.982901 -118.935537 37 17495ft 404kts
09-Oct-13 16:55 33.057963 -118.837557 37 15465ft 397kts
09-Oct-13 16:56 33.131408 -118.741071 39 13462ft 386kts
09-Oct-13 16:57 33.202076 -118.648296 39 12043ft 365kts
09-Oct-13 16:58 33.269065 -118.560243 41 11977ft 367kts
09-Oct-13 16:59 33.330279 -118.479214 41 11969ft 361kts
09-Oct-13 17:00 33.368432 -118.365970 93 11981ft 342kts
09-Oct-13 17:01 33.353442 -118.253312 98 11979ft 342kts
09-Oct-13 17:02 33.338760 -118.141023 98 11977ft 343kts
09-Oct-13 17:03 33.323650 -118.028465 98 11982ft 343kts
09-Oct-13 17:04 33.314473 -117.916072 72 11956ft 336kts
09-Oct-13 17:05 33.379849 -117.867845 335 11961ft 278kts
09-Oct-13 17:06 33.429062 -117.926121 318 10869ft 265kts
09-Oct-13 17:07 33.503879 -117.952130 337 9500ft 263kts
09-Oct-13 17:08 33.576834 -117.979332 337 8316ft 275kts
09-Oct-13 17:09 33.649369 -118.005780 337 7151ft 268kts
09-Oct-13 17:10 33.717716 -118.030883 337 6977ft 245kts
09-Oct-13 17:11 33.778551 -118.052811 339 6975ft 221kts
09-Oct-13 17:12 33.841129 -118.049232 2 6309ft 230kts
09-Oct-13 17:13 33.903094 -118.047209 342 5102ft 216kts
09-Oct-13 17:14 33.948798 -118.081678 292 4034ft 197kts
09-Oct-13 17:15 33.963594 -118.146116 262 3704ft 207kts
09-Oct-13 17:16 33.955005 -118.210826 262 2928ft 190kts
09-Oct-13 17:17 33.948529 -118.273664 262 1900ft 171kts
09-Oct-13 17:18 33.943474 -118.323065 261 1094ft 135kts
09-Oct-13 17:19 33.941040 -118.346855 261 730ft 133kts
09-Oct-13 17:20 33.937658 -118.379833 261 234ft 131kts
09-Oct-13 17:21 33.934784 -118.409557 275 140ft 21kts
09-Oct-13 17:22 33.936081 -118.412728 350 140ft 10kts
09-Oct-13 17:23 33.937518 -118.412275 82 140ft 0kts
09-Oct-13 17:24 33.937584 -118.411852 63 140ft 8kts
09-Oct-13 17:25 33.938742 -118.408280 82 140ft 16kts
09-Oct-13 17:26 33.939183 -118.404005 82 140ft 10kts
09-Oct-13 17:27 33.939664 -118.399232 82 140ft 15kts
09-Oct-13 17:28 33.940864 -118.398818 305 140ft 4kts
09-Oct-13 17:29 33.940982 -118.399010 305 140ft 0kts
09-Oct-13 17:30 33.940982 -118.399010 305 140ft 0kts

Navigation Log

Ident Type
Flight plan parsing failed, navigation log unavailable